sensor_id;sensor_type;location;lat;lon;timestamp;P1;durP1;ratioP1;P2;durP2;ratioP2
70866;SDS011;58487;53.474;49.470;2022-11-20T00:01:07;14.13;;;7.55;;
70866;SDS011;58487;53.474;49.470;2022-11-20T00:03:35;13.77;;;6.68;;
70866;SDS011;58487;53.474;49.470;2022-11-20T00:06:02;12.10;;;5.78;;
70866;SDS011;58487;53.474;49.470;2022-11-20T00:08:37;11.25;;;6.00;;
70866;SDS011;58487;53.474;49.470;2022-11-20T00:11:04;12.43;;;6.20;;
70866;SDS011;58487;53.474;49.470;2022-11-20T00:13:35;10.68;;;5.10;;
70866;SDS011;58487;53.474;49.470;2022-11-20T00:16:05;11.27;;;5.30;;
70866;SDS011;58487;53.474;49.470;2022-11-20T00:18:41;11.93;;;5.70;;
70866;SDS011;58487;53.474;49.470;2022-11-20T00:21:11;11.25;;;5.82;;
70866;SDS011;58487;53.474;49.470;2022-11-20T00:23:54;12.37;;;6.00;;
70866;SDS011;58487;53.474;49.470;2022-11-20T00:26:57;14.80;;;6.30;;
70866;SDS011;58487;53.474;49.470;2022-11-20T00:29:26;12.18;;;6.10;;
70866;SDS011;58487;53.474;49.470;2022-11-20T00:31:59;11.20;;;5.68;;
70866;SDS011;58487;53.474;49.470;2022-11-20T00:34:27;13.35;;;6.30;;
70866;SDS011;58487;53.474;49.470;2022-11-20T00:37:05;12.57;;;6.17;;
70866;SDS011;58487;53.474;49.470;2022-11-20T00:39:31;9.32;;;4.72;;
70866;SDS011;58487;53.474;49.470;2022-11-20T00:42:00;12.85;;;6.13;;
70866;SDS011;58487;53.474;49.470;2022-11-20T00:44:26;10.90;;;5.22;;
70866;SDS011;58487;53.474;49.470;2022-11-20T00:46:52;12.00;;;5.70;;
70866;SDS011;58487;53.474;49.470;2022-11-20T00:49:20;13.70;;;5.87;;
70866;SDS011;58487;53.474;49.470;2022-11-20T00:51:46;12.05;;;5.95;;
70866;SDS011;58487;53.474;49.470;2022-11-20T00:54:12;12.65;;;5.10;;
70866;SDS011;58487;53.474;49.470;2022-11-20T00:56:38;12.75;;;6.45;;
70866;SDS011;58487;53.474;49.470;2022-11-20T00:59:11;13.07;;;6.47;;
70866;SDS011;58487;53.474;49.470;2022-11-20T01:01:37;11.63;;;5.57;;
70866;SDS011;58487;53.474;49.470;2022-11-20T01:04:03;12.35;;;5.80;;
70866;SDS011;58487;53.474;49.470;2022-11-20T01:06:34;11.38;;;5.32;;
70866;SDS011;58487;53.474;49.470;2022-11-20T01:09:04;12.35;;;5.90;;
70866;SDS011;58487;53.474;49.470;2022-11-20T01:11:42;13.30;;;6.17;;
70866;SDS011;58487;53.474;49.470;2022-11-20T01:14:10;11.25;;;4.93;;
70866;SDS011;58487;53.474;49.470;2022-11-20T01:16:47;12.65;;;5.55;;
70866;SDS011;58487;53.474;49.470;2022-11-20T01:19:21;11.73;;;5.32;;
70866;SDS011;58487;53.474;49.470;2022-11-20T01:21:52;12.45;;;5.50;;
70866;SDS011;58487;53.474;49.470;2022-11-20T01:24:19;12.73;;;6.10;;
70866;SDS011;58487;53.474;49.470;2022-11-20T01:26:47;12.45;;;6.25;;
70866;SDS011;58487;53.474;49.470;2022-11-20T01:29:16;11.68;;;5.38;;
70866;SDS011;58487;53.474;49.470;2022-11-20T01:31:44;13.40;;;4.70;;
70866;SDS011;58487;53.474;49.470;2022-11-20T01:34:15;13.40;;;6.10;;
70866;SDS011;58487;53.474;49.470;2022-11-20T01:36:43;10.97;;;4.47;;
70866;SDS011;58487;53.474;49.470;2022-11-20T01:39:25;13.48;;;6.57;;
70866;SDS011;58487;53.474;49.470;2022-11-20T01:41:52;12.73;;;5.40;;
70866;SDS011;58487;53.474;49.470;2022-11-20T01:44:56;12.73;;;6.00;;
70866;SDS011;58487;53.474;49.470;2022-11-20T01:53:03;12.73;;;6.07;;
70866;SDS011;58487;53.474;49.470;2022-11-20T01:55:33;14.10;;;6.35;;
70866;SDS011;58487;53.474;49.470;2022-11-20T01:58:10;12.50;;;5.90;;
70866;SDS011;58487;53.474;49.470;2022-11-20T02:00:40;12.80;;;5.80;;
70866;SDS011;58487;53.474;49.470;2022-11-20T02:03:08;13.10;;;6.50;;
70866;SDS011;58487;53.474;49.470;2022-11-20T02:08:20;15.48;;;6.28;;
70866;SDS011;58487;53.474;49.470;2022-11-20T02:10:48;11.73;;;5.53;;
70866;SDS011;58487;53.474;49.470;2022-11-20T02:13:14;13.85;;;6.05;;
70866;SDS011;58487;53.474;49.470;2022-11-20T02:16:02;14.63;;;6.33;;
70866;SDS011;58487;53.474;49.470;2022-11-20T02:18:35;13.20;;;5.82;;
70866;SDS011;58487;53.474;49.470;2022-11-20T02:24:12;12.13;;;6.20;;
70866;SDS011;58487;53.474;49.470;2022-11-20T02:29:44;11.57;;;5.23;;
70866;SDS011;58487;53.474;49.470;2022-11-20T02:32:29;12.18;;;5.40;;
70866;SDS011;58487;53.474;49.470;2022-11-20T02:34:57;11.25;;;5.40;;
70866;SDS011;58487;53.474;49.470;2022-11-20T02:37:25;12.98;;;5.70;;
70866;SDS011;58487;53.474;49.470;2022-11-20T02:39:58;13.55;;;6.20;;
70866;SDS011;58487;53.474;49.470;2022-11-20T02:42:24;9.43;;;4.83;;
70866;SDS011;58487;53.474;49.470;2022-11-20T02:44:50;9.75;;;4.85;;
70866;SDS011;58487;53.474;49.470;2022-11-20T02:47:16;11.60;;;5.88;;
70866;SDS011;58487;53.474;49.470;2022-11-20T02:49:42;11.48;;;5.43;;
70866;SDS011;58487;53.474;49.470;2022-11-20T02:52:08;13.35;;;5.10;;
70866;SDS011;58487;53.474;49.470;2022-11-20T02:54:34;12.40;;;5.17;;
70866;SDS011;58487;53.474;49.470;2022-11-20T02:57:00;12.25;;;5.80;;
70866;SDS011;58487;53.474;49.470;2022-11-20T02:59:26;11.20;;;5.30;;
70866;SDS011;58487;53.474;49.470;2022-11-20T03:01:52;10.30;;;5.05;;
70866;SDS011;58487;53.474;49.470;2022-11-20T03:04:18;14.07;;;6.90;;
70866;SDS011;58487;53.474;49.470;2022-11-20T03:06:44;12.47;;;5.87;;
70866;SDS011;58487;53.474;49.470;2022-11-20T03:09:10;12.00;;;5.10;;
70866;SDS011;58487;53.474;49.470;2022-11-20T03:11:39;12.20;;;5.70;;
70866;SDS011;58487;53.474;49.470;2022-11-20T03:14:05;12.52;;;5.68;;
70866;SDS011;58487;53.474;49.470;2022-11-20T03:16:31;11.48;;;5.57;;
70866;SDS011;58487;53.474;49.470;2022-11-20T03:18:58;13.33;;;5.73;;
70866;SDS011;58487;53.474;49.470;2022-11-20T03:21:24;12.82;;;6.57;;
70866;SDS011;58487;53.474;49.470;2022-11-20T03:23:53;13.93;;;5.55;;
70866;SDS011;58487;53.474;49.470;2022-11-20T03:26:22;13.13;;;6.05;;
70866;SDS011;58487;53.474;49.470;2022-11-20T03:28:50;13.23;;;5.85;;
70866;SDS011;58487;53.474;49.470;2022-11-20T03:31:19;13.23;;;6.07;;
70866;SDS011;58487;53.474;49.470;2022-11-20T03:33:55;14.55;;;6.07;;
70866;SDS011;58487;53.474;49.470;2022-11-20T03:36:22;12.05;;;5.95;;
70866;SDS011;58487;53.474;49.470;2022-11-20T03:38:48;12.07;;;5.43;;
70866;SDS011;58487;53.474;49.470;2022-11-20T03:41:19;11.30;;;5.38;;
70866;SDS011;58487;53.474;49.470;2022-11-20T03:43:48;13.50;;;5.83;;
70866;SDS011;58487;53.474;49.470;2022-11-20T03:46:19;12.63;;;5.88;;
70866;SDS011;58487;53.474;49.470;2022-11-20T03:48:46;14.93;;;6.32;;
70866;SDS011;58487;53.474;49.470;2022-11-20T03:51:16;14.82;;;6.13;;
70866;SDS011;58487;53.474;49.470;2022-11-20T03:53:50;11.68;;;6.30;;
70866;SDS011;58487;53.474;49.470;2022-11-20T03:56:25;13.33;;;6.17;;
70866;SDS011;58487;53.474;49.470;2022-11-20T03:58:52;14.15;;;6.68;;
70866;SDS011;58487;53.474;49.470;2022-11-20T04:01:19;13.63;;;6.35;;
70866;SDS011;58487;53.474;49.470;2022-11-20T04:03:47;10.18;;;5.05;;
70866;SDS011;58487;53.474;49.470;2022-11-20T04:06:15;13.77;;;6.05;;
70866;SDS011;58487;53.474;49.470;2022-11-20T04:08:43;11.67;;;5.73;;
70866;SDS011;58487;53.474;49.470;2022-11-20T04:11:13;12.50;;;5.38;;
70866;SDS011;58487;53.474;49.470;2022-11-20T04:13:45;12.20;;;5.13;;
70866;SDS011;58487;53.474;49.470;2022-11-20T04:16:13;11.75;;;5.47;;
70866;SDS011;58487;53.474;49.470;2022-11-20T04:18:39;12.60;;;6.03;;
70866;SDS011;58487;53.474;49.470;2022-11-20T04:21:05;12.67;;;5.83;;
70866;SDS011;58487;53.474;49.470;2022-11-20T04:23:31;15.70;;;6.53;;
70866;SDS011;58487;53.474;49.470;2022-11-20T04:26:02;13.43;;;6.10;;
70866;SDS011;58487;53.474;49.470;2022-11-20T04:28:29;13.38;;;6.82;;
70866;SDS011;58487;53.474;49.470;2022-11-20T04:31:01;13.48;;;6.30;;
70866;SDS011;58487;53.474;49.470;2022-11-20T04:33:38;14.47;;;6.67;;
70866;SDS011;58487;53.474;49.470;2022-11-20T04:36:06;11.65;;;4.90;;
70866;SDS011;58487;53.474;49.470;2022-11-20T04:38:38;13.13;;;5.68;;
70866;SDS011;58487;53.474;49.470;2022-11-20T04:41:06;10.75;;;4.85;;
70866;SDS011;58487;53.474;49.470;2022-11-20T04:43:39;11.15;;;5.53;;
70866;SDS011;58487;53.474;49.470;2022-11-20T04:46:05;10.87;;;4.70;;
70866;SDS011;58487;53.474;49.470;2022-11-20T04:48:31;12.85;;;5.43;;
70866;SDS011;58487;53.474;49.470;2022-11-20T04:50:57;11.48;;;4.93;;
70866;SDS011;58487;53.474;49.470;2022-11-20T04:53:28;13.20;;;6.63;;
70866;SDS011;58487;53.474;49.470;2022-11-20T04:55:58;12.67;;;5.93;;
70866;SDS011;58487;53.474;49.470;2022-11-20T04:58:26;12.60;;;5.88;;
70866;SDS011;58487;53.474;49.470;2022-11-20T05:00:52;14.48;;;6.38;;
70866;SDS011;58487;53.474;49.470;2022-11-20T05:03:18;13.05;;;6.07;;
70866;SDS011;58487;53.474;49.470;2022-11-20T05:05:44;12.70;;;5.78;;
70866;SDS011;58487;53.474;49.470;2022-11-20T05:08:10;13.33;;;5.53;;
70866;SDS011;58487;53.474;49.470;2022-11-20T05:10:36;12.95;;;6.03;;
70866;SDS011;58487;53.474;49.470;2022-11-20T05:13:03;12.52;;;5.65;;
70866;SDS011;58487;53.474;49.470;2022-11-20T05:15:29;14.70;;;6.40;;
70866;SDS011;58487;53.474;49.470;2022-11-20T05:17:58;14.77;;;6.82;;
70866;SDS011;58487;53.474;49.470;2022-11-20T05:20:27;11.57;;;5.37;;
70866;SDS011;58487;53.474;49.470;2022-11-20T05:22:56;16.08;;;6.82;;
70866;SDS011;58487;53.474;49.470;2022-11-20T05:25:22;14.75;;;6.90;;
70866;SDS011;58487;53.474;49.470;2022-11-20T05:27:48;12.80;;;6.03;;
70866;SDS011;58487;53.474;49.470;2022-11-20T05:30:14;14.23;;;6.80;;
70866;SDS011;58487;53.474;49.470;2022-11-20T05:32:40;17.80;;;6.40;;
70866;SDS011;58487;53.474;49.470;2022-11-20T05:35:07;18.02;;;7.65;;
70866;SDS011;58487;53.474;49.470;2022-11-20T05:37:33;13.57;;;6.05;;
70866;SDS011;58487;53.474;49.470;2022-11-20T05:39:58;16.13;;;7.18;;
70866;SDS011;58487;53.474;49.470;2022-11-20T05:42:30;14.20;;;6.60;;
70866;SDS011;58487;53.474;49.470;2022-11-20T05:44:57;13.75;;;6.03;;
70866;SDS011;58487;53.474;49.470;2022-11-20T05:47:23;15.32;;;7.13;;
70866;SDS011;58487;53.474;49.470;2022-11-20T05:49:50;17.45;;;7.00;;
70866;SDS011;58487;53.474;49.470;2022-11-20T05:52:16;16.70;;;6.38;;
70866;SDS011;58487;53.474;49.470;2022-11-20T05:54:42;13.07;;;5.77;;
70866;SDS011;58487;53.474;49.470;2022-11-20T05:57:08;13.63;;;5.55;;
70866;SDS011;58487;53.474;49.470;2022-11-20T05:59:34;14.93;;;5.65;;
70866;SDS011;58487;53.474;49.470;2022-11-20T06:02:02;13.77;;;5.88;;
70866;SDS011;58487;53.474;49.470;2022-11-20T06:04:28;14.87;;;6.13;;
70866;SDS011;58487;53.474;49.470;2022-11-20T06:06:55;17.58;;;6.82;;
70866;SDS011;58487;53.474;49.470;2022-11-20T06:09:21;16.02;;;6.85;;
70866;SDS011;58487;53.474;49.470;2022-11-20T06:11:47;18.15;;;7.15;;
70866;SDS011;58487;53.474;49.470;2022-11-20T06:14:16;13.32;;;5.63;;
70866;SDS011;58487;53.474;49.470;2022-11-20T06:16:42;15.20;;;6.47;;
70866;SDS011;58487;53.474;49.470;2022-11-20T06:19:09;14.93;;;6.50;;
70866;SDS011;58487;53.474;49.470;2022-11-20T06:21:38;13.88;;;6.25;;
70866;SDS011;58487;53.474;49.470;2022-11-20T06:24:06;15.65;;;6.70;;
70866;SDS011;58487;53.474;49.470;2022-11-20T06:26:32;14.40;;;6.82;;
70866;SDS011;58487;53.474;49.470;2022-11-20T06:29:01;16.10;;;7.57;;
70866;SDS011;58487;53.474;49.470;2022-11-20T06:31:30;16.90;;;6.97;;
70866;SDS011;58487;53.474;49.470;2022-11-20T06:34:00;15.93;;;6.85;;
70866;SDS011;58487;53.474;49.470;2022-11-20T06:36:27;17.58;;;7.78;;
70866;SDS011;58487;53.474;49.470;2022-11-20T06:38:53;17.58;;;7.80;;
70866;SDS011;58487;53.474;49.470;2022-11-20T06:41:19;21.13;;;7.40;;
70866;SDS011;58487;53.474;49.470;2022-11-20T06:43:47;14.52;;;6.40;;
70866;SDS011;58487;53.474;49.470;2022-11-20T06:46:14;15.13;;;6.90;;
70866;SDS011;58487;53.474;49.470;2022-11-20T06:48:43;16.45;;;7.07;;
70866;SDS011;58487;53.474;49.470;2022-11-20T06:51:09;16.38;;;7.68;;
70866;SDS011;58487;53.474;49.470;2022-11-20T06:53:39;14.60;;;6.60;;
70866;SDS011;58487;53.474;49.470;2022-11-20T06:56:05;17.42;;;7.38;;
70866;SDS011;58487;53.474;49.470;2022-11-20T06:58:32;15.80;;;7.28;;
70866;SDS011;58487;53.474;49.470;2022-11-20T07:01:00;17.92;;;7.97;;
70866;SDS011;58487;53.474;49.470;2022-11-20T07:03:30;16.05;;;7.50;;
70866;SDS011;58487;53.474;49.470;2022-11-20T07:05:57;16.17;;;6.77;;
70866;SDS011;58487;53.474;49.470;2022-11-20T07:08:25;16.40;;;6.63;;
70866;SDS011;58487;53.474;49.470;2022-11-20T07:10:51;13.45;;;5.93;;
70866;SDS011;58487;53.474;49.470;2022-11-20T07:13:17;18.52;;;7.45;;
70866;SDS011;58487;53.474;49.470;2022-11-20T07:15:43;15.43;;;7.07;;
70866;SDS011;58487;53.474;49.470;2022-11-20T07:18:09;20.70;;;8.83;;
70866;SDS011;58487;53.474;49.470;2022-11-20T07:20:36;21.50;;;9.02;;
70866;SDS011;58487;53.474;49.470;2022-11-20T07:23:02;18.20;;;7.95;;
70866;SDS011;58487;53.474;49.470;2022-11-20T07:25:28;20.05;;;8.63;;
70866;SDS011;58487;53.474;49.470;2022-11-20T07:27:58;18.05;;;8.35;;
70866;SDS011;58487;53.474;49.470;2022-11-20T07:30:25;21.07;;;8.60;;
70866;SDS011;58487;53.474;49.470;2022-11-20T07:32:52;25.77;;;8.00;;
70866;SDS011;58487;53.474;49.470;2022-11-20T07:35:19;19.35;;;9.02;;
70866;SDS011;58487;53.474;49.470;2022-11-20T07:37:46;16.25;;;7.82;;
70866;SDS011;58487;53.474;49.470;2022-11-20T07:40:12;21.15;;;9.35;;
70866;SDS011;58487;53.474;49.470;2022-11-20T07:42:39;17.87;;;8.10;;
70866;SDS011;58487;53.474;49.470;2022-11-20T07:45:12;17.95;;;8.02;;
70866;SDS011;58487;53.474;49.470;2022-11-20T07:47:38;19.60;;;8.60;;
70866;SDS011;58487;53.474;49.470;2022-11-20T07:50:04;20.42;;;8.75;;
70866;SDS011;58487;53.474;49.470;2022-11-20T07:52:31;20.17;;;7.38;;
70866;SDS011;58487;53.474;49.470;2022-11-20T07:54:57;19.30;;;8.30;;
70866;SDS011;58487;53.474;49.470;2022-11-20T07:57:23;24.10;;;9.20;;
70866;SDS011;58487;53.474;49.470;2022-11-20T07:59:49;23.63;;;9.40;;
70866;SDS011;58487;53.474;49.470;2022-11-20T08:02:15;21.48;;;8.35;;
70866;SDS011;58487;53.474;49.470;2022-11-20T08:04:41;21.03;;;8.70;;
70866;SDS011;58487;53.474;49.470;2022-11-20T08:07:07;17.97;;;8.17;;
70866;SDS011;58487;53.474;49.470;2022-11-20T08:09:33;18.00;;;7.88;;
70866;SDS011;58487;53.474;49.470;2022-11-20T08:11:59;20.45;;;8.38;;
70866;SDS011;58487;53.474;49.470;2022-11-20T08:14:43;13.00;;;6.35;;
70866;SDS011;58487;53.474;49.470;2022-11-20T08:17:09;16.73;;;7.25;;
70866;SDS011;58487;53.474;49.470;2022-11-20T08:19:35;13.97;;;6.50;;
70866;SDS011;58487;53.474;49.470;2022-11-20T08:22:01;16.33;;;7.18;;
70866;SDS011;58487;53.474;49.470;2022-11-20T08:24:27;14.88;;;6.20;;
70866;SDS011;58487;53.474;49.470;2022-11-20T08:26:53;16.38;;;7.28;;
70866;SDS011;58487;53.474;49.470;2022-11-20T08:29:22;16.40;;;7.13;;
70866;SDS011;58487;53.474;49.470;2022-11-20T08:31:48;17.93;;;8.07;;
70866;SDS011;58487;53.474;49.470;2022-11-20T08:34:14;19.00;;;7.55;;
70866;SDS011;58487;53.474;49.470;2022-11-20T08:36:40;20.45;;;8.02;;
70866;SDS011;58487;53.474;49.470;2022-11-20T08:39:06;16.90;;;7.78;;
70866;SDS011;58487;53.474;49.470;2022-11-20T08:41:32;16.87;;;8.03;;
70866;SDS011;58487;53.474;49.470;2022-11-20T08:43:59;17.45;;;7.68;;
70866;SDS011;58487;53.474;49.470;2022-11-20T08:46:28;20.38;;;8.85;;
70866;SDS011;58487;53.474;49.470;2022-11-20T08:48:58;19.67;;;8.70;;
70866;SDS011;58487;53.474;49.470;2022-11-20T08:51:25;15.93;;;6.45;;
70866;SDS011;58487;53.474;49.470;2022-11-20T08:53:51;18.03;;;7.17;;
70866;SDS011;58487;53.474;49.470;2022-11-20T08:56:17;17.95;;;8.25;;
70866;SDS011;58487;53.474;49.470;2022-11-20T08:58:44;16.92;;;7.72;;
70866;SDS011;58487;53.474;49.470;2022-11-20T09:01:10;20.25;;;8.65;;
70866;SDS011;58487;53.474;49.470;2022-11-20T09:03:36;15.88;;;7.32;;
70866;SDS011;58487;53.474;49.470;2022-11-20T09:06:03;19.13;;;8.07;;
70866;SDS011;58487;53.474;49.470;2022-11-20T09:08:31;19.85;;;7.70;;
70866;SDS011;58487;53.474;49.470;2022-11-20T09:10:58;16.50;;;7.70;;
70866;SDS011;58487;53.474;49.470;2022-11-20T09:13:25;16.50;;;7.50;;
70866;SDS011;58487;53.474;49.470;2022-11-20T09:15:56;17.40;;;7.38;;
70866;SDS011;58487;53.474;49.470;2022-11-20T09:18:24;14.37;;;6.47;;
70866;SDS011;58487;53.474;49.470;2022-11-20T09:20:50;16.00;;;7.03;;
70866;SDS011;58487;53.474;49.470;2022-11-20T09:23:16;14.15;;;6.72;;
70866;SDS011;58487;53.474;49.470;2022-11-20T09:25:43;16.70;;;7.00;;
70866;SDS011;58487;53.474;49.470;2022-11-20T09:28:10;14.13;;;6.47;;
70866;SDS011;58487;53.474;49.470;2022-11-20T09:30:36;13.57;;;6.23;;
70866;SDS011;58487;53.474;49.470;2022-11-20T09:33:03;14.55;;;6.82;;
70866;SDS011;58487;53.474;49.470;2022-11-20T09:35:30;13.73;;;6.70;;
70866;SDS011;58487;53.474;49.470;2022-11-20T09:37:56;13.07;;;5.93;;
70866;SDS011;58487;53.474;49.470;2022-11-20T09:40:26;12.90;;;6.13;;
70866;SDS011;58487;53.474;49.470;2022-11-20T09:48:16;15.15;;;5.85;;
70866;SDS011;58487;53.474;49.470;2022-11-20T09:56:19;13.77;;;6.23;;
70866;SDS011;58487;53.474;49.470;2022-11-20T09:58:50;15.93;;;6.65;;
70866;SDS011;58487;53.474;49.470;2022-11-20T10:01:20;14.27;;;6.32;;
70866;SDS011;58487;53.474;49.470;2022-11-20T10:03:50;13.65;;;6.13;;
70866;SDS011;58487;53.474;49.470;2022-11-20T10:06:21;14.63;;;6.45;;
70866;SDS011;58487;53.474;49.470;2022-11-20T10:09:15;12.30;;;5.63;;
70866;SDS011;58487;53.474;49.470;2022-11-20T10:17:18;14.05;;;6.63;;
70866;SDS011;58487;53.474;49.470;2022-11-20T10:22:59;13.60;;;6.73;;
70866;SDS011;58487;53.474;49.470;2022-11-20T10:31:11;14.05;;;6.88;;
70866;SDS011;58487;53.474;49.470;2022-11-20T10:33:42;15.18;;;6.78;;
70866;SDS011;58487;53.474;49.470;2022-11-20T10:36:19;15.23;;;6.70;;
70866;SDS011;58487;53.474;49.470;2022-11-20T10:39:06;16.75;;;7.55;;
70866;SDS011;58487;53.474;49.470;2022-11-20T10:41:42;20.65;;;7.22;;
70866;SDS011;58487;53.474;49.470;2022-11-20T10:44:16;13.80;;;6.65;;
70866;SDS011;58487;53.474;49.470;2022-11-20T10:47:03;15.50;;;6.97;;
70866;SDS011;58487;53.474;49.470;2022-11-20T10:49:32;11.77;;;5.33;;
70866;SDS011;58487;53.474;49.470;2022-11-20T10:58:13;13.02;;;5.75;;
70866;SDS011;58487;53.474;49.470;2022-11-20T11:00:40;13.35;;;6.35;;
70866;SDS011;58487;53.474;49.470;2022-11-20T11:06:10;12.07;;;5.30;;
70866;SDS011;58487;53.474;49.470;2022-11-20T11:08:38;13.80;;;5.90;;
70866;SDS011;58487;53.474;49.470;2022-11-20T11:11:23;12.80;;;6.50;;
70866;SDS011;58487;53.474;49.470;2022-11-20T11:13:52;11.57;;;5.78;;
70866;SDS011;58487;53.474;49.470;2022-11-20T11:16:27;13.50;;;6.40;;
70866;SDS011;58487;53.474;49.470;2022-11-20T11:19:03;13.50;;;6.25;;
70866;SDS011;58487;53.474;49.470;2022-11-20T11:21:37;16.38;;;7.30;;
70866;SDS011;58487;53.474;49.470;2022-11-20T11:24:15;18.75;;;5.68;;
70866;SDS011;58487;53.474;49.470;2022-11-20T11:26:56;14.23;;;7.18;;
70866;SDS011;58487;53.474;49.470;2022-11-20T11:29:32;15.70;;;7.10;;
70866;SDS011;58487;53.474;49.470;2022-11-20T11:32:10;15.45;;;6.93;;
70866;SDS011;58487;53.474;49.470;2022-11-20T11:34:43;15.15;;;7.47;;
70866;SDS011;58487;53.474;49.470;2022-11-20T11:37:19;13.98;;;6.50;;
70866;SDS011;58487;53.474;49.470;2022-11-20T11:39:49;14.65;;;6.53;;
70866;SDS011;58487;53.474;49.470;2022-11-20T11:42:16;15.03;;;7.20;;
70866;SDS011;58487;53.474;49.470;2022-11-20T11:44:45;16.50;;;7.00;;
70866;SDS011;58487;53.474;49.470;2022-11-20T11:47:37;13.93;;;6.93;;
70866;SDS011;58487;53.474;49.470;2022-11-20T11:53:21;17.10;;;7.90;;
70866;SDS011;58487;53.474;49.470;2022-11-20T11:55:42;12.80;;;6.03;;
70866;SDS011;58487;53.474;49.470;2022-11-20T12:06:47;16.00;;;7.67;;
70866;SDS011;58487;53.474;49.470;2022-11-20T12:09:17;16.50;;;7.18;;
70866;SDS011;58487;53.474;49.470;2022-11-20T12:11:56;13.70;;;6.38;;
70866;SDS011;58487;53.474;49.470;2022-11-20T12:17:00;12.75;;;5.68;;
70866;SDS011;58487;53.474;49.470;2022-11-20T12:19:28;13.20;;;6.77;;
70866;SDS011;58487;53.474;49.470;2022-11-20T12:22:06;14.90;;;6.55;;
70866;SDS011;58487;53.474;49.470;2022-11-20T12:30:39;17.38;;;7.50;;
70866;SDS011;58487;53.474;49.470;2022-11-20T12:33:19;12.30;;;6.63;;
70866;SDS011;58487;53.474;49.470;2022-11-20T12:44:36;16.77;;;6.93;;
70866;SDS011;58487;53.474;49.470;2022-11-20T12:47:51;19.40;;;6.87;;
70866;SDS011;58487;53.474;49.470;2022-11-20T12:56:17;12.85;;;6.30;;
70866;SDS011;58487;53.474;49.470;2022-11-20T12:58:57;14.20;;;7.15;;
70866;SDS011;58487;53.474;49.470;2022-11-20T13:01:36;14.17;;;6.40;;
70866;SDS011;58487;53.474;49.470;2022-11-20T13:07:09;14.52;;;6.90;;
70866;SDS011;58487;53.474;49.470;2022-11-20T13:09:40;12.65;;;6.25;;
70866;SDS011;58487;53.474;49.470;2022-11-20T13:12:33;14.15;;;7.07;;
70866;SDS011;58487;53.474;49.470;2022-11-20T13:17:59;16.65;;;8.65;;
70866;SDS011;58487;53.474;49.470;2022-11-20T13:20:28;18.15;;;8.65;;
70866;SDS011;58487;53.474;49.470;2022-11-20T13:22:55;18.10;;;8.05;;
70866;SDS011;58487;53.474;49.470;2022-11-20T13:25:23;18.65;;;8.60;;
70866;SDS011;58487;53.474;49.470;2022-11-20T13:27:55;14.40;;;6.63;;
70866;SDS011;58487;53.474;49.470;2022-11-20T13:30:24;14.85;;;7.60;;
70866;SDS011;58487;53.474;49.470;2022-11-20T13:33:05;13.68;;;5.57;;
70866;SDS011;58487;53.474;49.470;2022-11-20T13:35:37;11.73;;;6.25;;
70866;SDS011;58487;53.474;49.470;2022-11-20T13:38:11;14.80;;;6.40;;
70866;SDS011;58487;53.474;49.470;2022-11-20T13:41:00;14.00;;;6.03;;
70866;SDS011;58487;53.474;49.470;2022-11-20T13:43:48;13.63;;;6.15;;
70866;SDS011;58487;53.474;49.470;2022-11-20T13:46:15;12.85;;;5.97;;
70866;SDS011;58487;53.474;49.470;2022-11-20T13:48:42;13.82;;;6.22;;
70866;SDS011;58487;53.474;49.470;2022-11-20T13:54:22;13.93;;;6.60;;
70866;SDS011;58487;53.474;49.470;2022-11-20T14:00:18;14.65;;;6.57;;
70866;SDS011;58487;53.474;49.470;2022-11-20T14:02:59;12.98;;;5.97;;
70866;SDS011;58487;53.474;49.470;2022-11-20T14:06:10;14.07;;;5.95;;
70866;SDS011;58487;53.474;49.470;2022-11-20T14:09:05;16.23;;;6.80;;
70866;SDS011;58487;53.474;49.470;2022-11-20T14:11:50;14.73;;;6.30;;
70866;SDS011;58487;53.474;49.470;2022-11-20T14:14:17;13.48;;;7.50;;
70866;SDS011;58487;53.474;49.470;2022-11-20T14:16:47;13.07;;;5.43;;
70866;SDS011;58487;53.474;49.470;2022-11-20T14:21:47;13.47;;;5.60;;
70866;SDS011;58487;53.474;49.470;2022-11-20T14:24:21;12.75;;;5.78;;
70866;SDS011;58487;53.474;49.470;2022-11-20T14:26:48;12.13;;;5.70;;
70866;SDS011;58487;53.474;49.470;2022-11-20T14:31:53;11.75;;;5.97;;
70866;SDS011;58487;53.474;49.470;2022-11-20T14:34:24;14.30;;;6.10;;
70866;SDS011;58487;53.474;49.470;2022-11-20T14:37:03;13.30;;;6.15;;
70866;SDS011;58487;53.474;49.470;2022-11-20T14:39:33;13.15;;;6.75;;
70866;SDS011;58487;53.474;49.470;2022-11-20T14:42:01;14.38;;;6.97;;
70866;SDS011;58487;53.474;49.470;2022-11-20T14:44:30;14.40;;;7.07;;
70866;SDS011;58487;53.474;49.470;2022-11-20T14:47:02;12.20;;;5.70;;
70866;SDS011;58487;53.474;49.470;2022-11-20T14:49:30;13.82;;;5.90;;
70866;SDS011;58487;53.474;49.470;2022-11-20T14:52:00;15.07;;;6.47;;
70866;SDS011;58487;53.474;49.470;2022-11-20T14:54:30;14.65;;;6.45;;
70866;SDS011;58487;53.474;49.470;2022-11-20T14:57:03;12.95;;;6.68;;
70866;SDS011;58487;53.474;49.470;2022-11-20T14:59:33;16.27;;;7.50;;
70866;SDS011;58487;53.474;49.470;2022-11-20T15:02:04;16.23;;;7.53;;
70866;SDS011;58487;53.474;49.470;2022-11-20T15:04:43;14.48;;;7.00;;
70866;SDS011;58487;53.474;49.470;2022-11-20T15:07:33;16.60;;;7.85;;
70866;SDS011;58487;53.474;49.470;2022-11-20T15:10:06;15.30;;;7.75;;
70866;SDS011;58487;53.474;49.470;2022-11-20T15:12:41;18.23;;;8.43;;
70866;SDS011;58487;53.474;49.470;2022-11-20T15:15:15;16.58;;;7.68;;
70866;SDS011;58487;53.474;49.470;2022-11-20T15:18:15;20.75;;;8.45;;
70866;SDS011;58487;53.474;49.470;2022-11-20T15:21:13;18.10;;;8.10;;
70866;SDS011;58487;53.474;49.470;2022-11-20T15:23:40;15.98;;;7.47;;
70866;SDS011;58487;53.474;49.470;2022-11-20T15:26:07;15.73;;;7.57;;
70866;SDS011;58487;53.474;49.470;2022-11-20T15:28:45;15.40;;;6.85;;
70866;SDS011;58487;53.474;49.470;2022-11-20T15:31:13;15.77;;;7.78;;
70866;SDS011;58487;53.474;49.470;2022-11-20T15:33:41;19.17;;;8.23;;
70866;SDS011;58487;53.474;49.470;2022-11-20T15:36:10;14.80;;;7.38;;
70866;SDS011;58487;53.474;49.470;2022-11-20T15:38:36;15.73;;;7.50;;
70866;SDS011;58487;53.474;49.470;2022-11-20T15:41:02;21.58;;;8.95;;
70866;SDS011;58487;53.474;49.470;2022-11-20T15:43:28;17.65;;;8.20;;
70866;SDS011;58487;53.474;49.470;2022-11-20T15:46:04;20.50;;;8.32;;
70866;SDS011;58487;53.474;49.470;2022-11-20T15:48:40;16.95;;;7.90;;
70866;SDS011;58487;53.474;49.470;2022-11-20T15:53:52;18.38;;;8.75;;
70866;SDS011;58487;53.474;49.470;2022-11-20T15:56:23;19.38;;;8.75;;
70866;SDS011;58487;53.474;49.470;2022-11-20T15:58:53;19.45;;;9.02;;
70866;SDS011;58487;53.474;49.470;2022-11-20T16:01:20;19.23;;;9.30;;
70866;SDS011;58487;53.474;49.470;2022-11-20T16:03:49;19.20;;;8.77;;
70866;SDS011;58487;53.474;49.470;2022-11-20T16:06:19;20.30;;;9.05;;
70866;SDS011;58487;53.474;49.470;2022-11-20T16:08:45;18.77;;;8.75;;
70866;SDS011;58487;53.474;49.470;2022-11-20T16:11:14;20.67;;;8.18;;
70866;SDS011;58487;53.474;49.470;2022-11-20T16:13:42;21.58;;;9.30;;
70866;SDS011;58487;53.474;49.470;2022-11-20T16:16:28;20.37;;;9.47;;
70866;SDS011;58487;53.474;49.470;2022-11-20T16:18:59;19.30;;;9.25;;
70866;SDS011;58487;53.474;49.470;2022-11-20T16:21:26;21.63;;;10.07;;
70866;SDS011;58487;53.474;49.470;2022-11-20T16:24:00;19.55;;;9.02;;